sensor_id;sensor_type;location;lat;lon;timestamp;temperature;humidity
78550;DHT22;68091;52.130;5.570;2023-10-09T00:00:52;13.60;99.90
78550;DHT22;68091;52.130;5.570;2023-10-09T00:03:23;13.60;99.90
78550;DHT22;68091;52.130;5.570;2023-10-09T00:05:49;13.60;99.90
78550;DHT22;68091;52.130;5.570;2023-10-09T00:08:18;13.60;99.90
78550;DHT22;68091;52.130;5.570;2023-10-09T00:10:57;13.50;99.90
78550;DHT22;68091;52.130;5.570;2023-10-09T00:13:23;13.50;99.90
78550;DHT22;68091;52.130;5.570;2023-10-09T00:16:03;13.50;99.90
78550;DHT22;68091;52.130;5.570;2023-10-09T00:18:34;13.60;99.90
78550;DHT22;68091;52.130;5.570;2023-10-09T00:20:59;13.60;99.90
78550;DHT22;68091;52.130;5.570;2023-10-09T00:23:38;13.60;99.90
78550;DHT22;68091;52.130;5.570;2023-10-09T00:26:04;13.70;99.90
78550;DHT22;68091;52.130;5.570;2023-10-09T00:28:41;13.70;99.90
78550;DHT22;68091;52.130;5.570;2023-10-09T00:31:10;13.70;99.90
78550;DHT22;68091;52.130;5.570;2023-10-09T00:33:40;13.80;99.90
78550;DHT22;68091;52.130;5.570;2023-10-09T00:36:07;13.80;99.90
78550;DHT22;68091;52.130;5.570;2023-10-09T00:38:38;13.80;99.90
78550;DHT22;68091;52.130;5.570;2023-10-09T00:41:17;13.80;99.90
78550;DHT22;68091;52.130;5.570;2023-10-09T00:43:50;13.80;99.90
78550;DHT22;68091;52.130;5.570;2023-10-09T00:46:20;13.80;99.90
78550;DHT22;68091;52.130;5.570;2023-10-09T00:48:47;13.80;99.90
78550;DHT22;68091;52.130;5.570;2023-10-09T00:51:13;13.90;99.90
78550;DHT22;68091;52.130;5.570;2023-10-09T00:53:45;13.90;99.90
78550;DHT22;68091;52.130;5.570;2023-10-09T00:56:15;14.00;99.90
78550;DHT22;68091;52.130;5.570;2023-10-09T00:58:45;14.00;99.90
78550;DHT22;68091;52.130;5.570;2023-10-09T01:01:12;14.00;99.90
78550;DHT22;68091;52.130;5.570;2023-10-09T01:03:41;14.10;99.90
78550;DHT22;68091;52.130;5.570;2023-10-09T01:06:10;14.00;99.90
78550;DHT22;68091;52.130;5.570;2023-10-09T01:08:38;14.10;99.90
78550;DHT22;68091;52.130;5.570;2023-10-09T01:11:10;14.10;99.90
78550;DHT22;68091;52.130;5.570;2023-10-09T01:13:44;14.10;99.90
78550;DHT22;68091;52.130;5.570;2023-10-09T01:16:16;14.10;99.90
78550;DHT22;68091;52.130;5.570;2023-10-09T01:18:42;14.20;99.90
78550;DHT22;68091;52.130;5.570;2023-10-09T01:21:11;14.30;99.90
78550;DHT22;68091;52.130;5.570;2023-10-09T01:23:40;14.40;99.90
78550;DHT22;68091;52.130;5.570;2023-10-09T01:26:17;14.40;99.90
78550;DHT22;68091;52.130;5.570;2023-10-09T01:28:43;14.40;99.90
78550;DHT22;68091;52.130;5.570;2023-10-09T01:31:09;14.40;99.90
78550;DHT22;68091;52.130;5.570;2023-10-09T01:33:37;14.50;99.90
78550;DHT22;68091;52.130;5.570;2023-10-09T01:36:03;14.50;99.90
78550;DHT22;68091;52.130;5.570;2023-10-09T01:38:29;14.50;99.90
78550;DHT22;68091;52.130;5.570;2023-10-09T01:41:12;14.50;99.90
78550;DHT22;68091;52.130;5.570;2023-10-09T01:43:41;14.40;99.90
78550;DHT22;68091;52.130;5.570;2023-10-09T01:46:13;14.50;99.90
78550;DHT22;68091;52.130;5.570;2023-10-09T01:48:42;14.40;99.90
78550;DHT22;68091;52.130;5.570;2023-10-09T01:51:18;14.50;99.90
78550;DHT22;68091;52.130;5.570;2023-10-09T01:53:44;14.50;99.90
78550;DHT22;68091;52.130;5.570;2023-10-09T01:56:10;14.50;99.90
78550;DHT22;68091;52.130;5.570;2023-10-09T01:58:40;14.50;99.90
78550;DHT22;68091;52.130;5.570;2023-10-09T02:01:06;14.50;99.90
78550;DHT22;68091;52.130;5.570;2023-10-09T02:03:31;14.50;99.90
78550;DHT22;68091;52.130;5.570;2023-10-09T02:06:01;14.50;99.90
78550;DHT22;68091;52.130;5.570;2023-10-09T02:08:29;14.50;99.90
78550;DHT22;68091;52.130;5.570;2023-10-09T02:10:55;14.50;99.90
78550;DHT22;68091;52.130;5.570;2023-10-09T02:13:44;14.50;99.90
78550;DHT22;68091;52.130;5.570;2023-10-09T02:16:12;14.50;99.90
78550;DHT22;68091;52.130;5.570;2023-10-09T02:18:40;14.50;99.90
78550;DHT22;68091;52.130;5.570;2023-10-09T02:21:18;14.50;99.90
78550;DHT22;68091;52.130;5.570;2023-10-09T02:23:53;14.50;99.90
78550;DHT22;68091;52.130;5.570;2023-10-09T02:26:22;14.50;99.90
78550;DHT22;68091;52.130;5.570;2023-10-09T02:28:57;14.50;99.90
78550;DHT22;68091;52.130;5.570;2023-10-09T02:31:30;14.50;99.90
78550;DHT22;68091;52.130;5.570;2023-10-09T02:34:06;14.40;99.90
78550;DHT22;68091;52.130;5.570;2023-10-09T02:36:33;14.40;99.90
78550;DHT22;68091;52.130;5.570;2023-10-09T02:39:09;14.40;99.90
78550;DHT22;68091;52.130;5.570;2023-10-09T02:41:49;14.40;99.90
78550;DHT22;68091;52.130;5.570;2023-10-09T02:44:15;14.50;99.90
78550;DHT22;68091;52.130;5.570;2023-10-09T02:46:42;14.50;99.90
78550;DHT22;68091;52.130;5.570;2023-10-09T02:49:10;14.50;99.90
78550;DHT22;68091;52.130;5.570;2023-10-09T02:51:41;14.50;99.90
78550;DHT22;68091;52.130;5.570;2023-10-09T02:54:07;14.50;99.90
78550;DHT22;68091;52.130;5.570;2023-10-09T02:56:43;14.60;99.90
78550;DHT22;68091;52.130;5.570;2023-10-09T02:59:12;14.60;99.90
78550;DHT22;68091;52.130;5.570;2023-10-09T03:01:39;14.60;99.90
78550;DHT22;68091;52.130;5.570;2023-10-09T03:04:05;14.60;99.90
78550;DHT22;68091;52.130;5.570;2023-10-09T03:06:36;14.60;99.90
78550;DHT22;68091;52.130;5.570;2023-10-09T03:09:03;14.60;99.90
78550;DHT22;68091;52.130;5.570;2023-10-09T03:11:48;14.60;99.90
78550;DHT22;68091;52.130;5.570;2023-10-09T03:14:19;14.60;99.90
78550;DHT22;68091;52.130;5.570;2023-10-09T03:16:46;14.70;99.90
78550;DHT22;68091;52.130;5.570;2023-10-09T03:19:13;14.70;99.90
78550;DHT22;68091;52.130;5.570;2023-10-09T03:21:39;14.70;99.90
78550;DHT22;68091;52.130;5.570;2023-10-09T03:24:05;14.70;99.90
78550;DHT22;68091;52.130;5.570;2023-10-09T03:26:32;14.80;99.90
78550;DHT22;68091;52.130;5.570;2023-10-09T03:29:00;14.80;99.90
78550;DHT22;68091;52.130;5.570;2023-10-09T03:31:29;14.80;99.90
78550;DHT22;68091;52.130;5.570;2023-10-09T03:33:59;14.80;99.90
78550;DHT22;68091;52.130;5.570;2023-10-09T03:36:24;14.80;99.90
78550;DHT22;68091;52.130;5.570;2023-10-09T03:38:52;14.90;99.90
78550;DHT22;68091;52.130;5.570;2023-10-09T03:41:20;14.80;99.90
78550;DHT22;68091;52.130;5.570;2023-10-09T03:43:49;14.80;99.90
78550;DHT22;68091;52.130;5.570;2023-10-09T03:46:19;14.80;99.90
78550;DHT22;68091;52.130;5.570;2023-10-09T03:48:57;14.90;99.90
78550;DHT22;68091;52.130;5.570;2023-10-09T03:51:26;14.80;99.90
78550;DHT22;68091;52.130;5.570;2023-10-09T03:53:52;14.80;99.90
78550;DHT22;68091;52.130;5.570;2023-10-09T03:56:30;14.80;99.90
78550;DHT22;68091;52.130;5.570;2023-10-09T03:58:58;14.80;99.90
78550;DHT22;68091;52.130;5.570;2023-10-09T04:01:23;14.70;99.90
78550;DHT22;68091;52.130;5.570;2023-10-09T04:04:03;14.70;99.90
78550;DHT22;68091;52.130;5.570;2023-10-09T04:06:30;14.70;99.90
78550;DHT22;68091;52.130;5.570;2023-10-09T04:11:24;14.80;99.90
78550;DHT22;68091;52.130;5.570;2023-10-09T04:13:51;14.80;99.90
78550;DHT22;68091;52.130;5.570;2023-10-09T04:16:18;14.80;99.90
78550;DHT22;68091;52.130;5.570;2023-10-09T04:19:16;14.90;99.90
78550;DHT22;68091;52.130;5.570;2023-10-09T04:21:47;14.90;99.90
78550;DHT22;68091;52.130;5.570;2023-10-09T04:24:13;14.90;99.90
78550;DHT22;68091;52.130;5.570;2023-10-09T04:26:39;14.80;99.90
78550;DHT22;68091;52.130;5.570;2023-10-09T04:29:10;14.90;99.90
78550;DHT22;68091;52.130;5.570;2023-10-09T04:31:56;14.90;99.90
78550;DHT22;68091;52.130;5.570;2023-10-09T04:34:22;14.90;99.90
78550;DHT22;68091;52.130;5.570;2023-10-09T04:36:51;14.90;99.90
78550;DHT22;68091;52.130;5.570;2023-10-09T04:39:35;15.00;99.90
78550;DHT22;68091;52.130;5.570;2023-10-09T04:42:02;15.00;99.90
78550;DHT22;68091;52.130;5.570;2023-10-09T04:44:46;15.00;99.90
78550;DHT22;68091;52.130;5.570;2023-10-09T04:47:39;15.10;99.90
78550;DHT22;68091;52.130;5.570;2023-10-09T04:50:15;15.10;99.90
78550;DHT22;68091;52.130;5.570;2023-10-09T04:52:43;15.20;99.90
78550;DHT22;68091;52.130;5.570;2023-10-09T04:55:09;15.20;99.90
78550;DHT22;68091;52.130;5.570;2023-10-09T04:57:56;15.20;99.90
78550;DHT22;68091;52.130;5.570;2023-10-09T05:00:27;15.20;99.90
78550;DHT22;68091;52.130;5.570;2023-10-09T05:05:22;15.30;99.90
78550;DHT22;68091;52.130;5.570;2023-10-09T05:08:06;15.30;99.90
78550;DHT22;68091;52.130;5.570;2023-10-09T05:13:57;15.40;99.90
78550;DHT22;68091;52.130;5.570;2023-10-09T05:16:37;15.40;99.90
78550;DHT22;68091;52.130;5.570;2023-10-09T05:19:03;15.40;99.90
78550;DHT22;68091;52.130;5.570;2023-10-09T05:21:36;15.40;99.90
78550;DHT22;68091;52.130;5.570;2023-10-09T05:24:12;15.40;99.90
78550;DHT22;68091;52.130;5.570;2023-10-09T05:26:38;15.50;99.90
78550;DHT22;68091;52.130;5.570;2023-10-09T05:29:16;15.40;99.90
78550;DHT22;68091;52.130;5.570;2023-10-09T05:32:06;15.40;99.90
78550;DHT22;68091;52.130;5.570;2023-10-09T05:34:37;15.40;99.90
78550;DHT22;68091;52.130;5.570;2023-10-09T05:37:23;15.40;99.90
78550;DHT22;68091;52.130;5.570;2023-10-09T05:39:52;15.40;99.90
78550;DHT22;68091;52.130;5.570;2023-10-09T05:42:33;15.40;99.90
78550;DHT22;68091;52.130;5.570;2023-10-09T05:47:54;15.40;99.90
78550;DHT22;68091;52.130;5.570;2023-10-09T05:50:49;15.40;99.90
78550;DHT22;68091;52.130;5.570;2023-10-09T05:53:33;15.50;99.90
78550;DHT22;68091;52.130;5.570;2023-10-09T05:56:11;15.50;99.90
78550;DHT22;68091;52.130;5.570;2023-10-09T05:58:55;15.50;99.90
78550;DHT22;68091;52.130;5.570;2023-10-09T06:01:48;15.50;99.90
78550;DHT22;68091;52.130;5.570;2023-10-09T06:04:32;15.50;99.90
78550;DHT22;68091;52.130;5.570;2023-10-09T06:07:27;15.60;99.90
78550;DHT22;68091;52.130;5.570;2023-10-09T06:10:12;15.60;99.90
78550;DHT22;68091;52.130;5.570;2023-10-09T06:13:07;15.60;99.90
78550;DHT22;68091;52.130;5.570;2023-10-09T06:15:36;15.70;99.90
78550;DHT22;68091;52.130;5.570;2023-10-09T06:18:11;15.70;99.90
78550;DHT22;68091;52.130;5.570;2023-10-09T06:20:57;15.80;99.90
78550;DHT22;68091;52.130;5.570;2023-10-09T06:23:44;15.80;99.90
78550;DHT22;68091;52.130;5.570;2023-10-09T06:26:36;15.80;99.90
78550;DHT22;68091;52.130;5.570;2023-10-09T06:29:02;15.80;99.90
78550;DHT22;68091;52.130;5.570;2023-10-09T06:31:40;15.80;99.90
78550;DHT22;68091;52.130;5.570;2023-10-09T06:34:27;15.80;99.90
78550;DHT22;68091;52.130;5.570;2023-10-09T06:37:00;15.90;99.90
78550;DHT22;68091;52.130;5.570;2023-10-09T06:39:53;15.90;99.90
78550;DHT22;68091;52.130;5.570;2023-10-09T06:42:27;15.90;99.90
78550;DHT22;68091;52.130;5.570;2023-10-09T06:45:02;15.90;99.90
78550;DHT22;68091;52.130;5.570;2023-10-09T06:47:47;15.90;99.90
78550;DHT22;68091;52.130;5.570;2023-10-09T06:50:22;15.90;99.90
78550;DHT22;68091;52.130;5.570;2023-10-09T06:52:54;15.90;99.90
78550;DHT22;68091;52.130;5.570;2023-10-09T06:55:35;15.90;99.90
78550;DHT22;68091;52.130;5.570;2023-10-09T06:58:02;16.00;99.90
78550;DHT22;68091;52.130;5.570;2023-10-09T07:00:39;16.10;99.90
78550;DHT22;68091;52.130;5.570;2023-10-09T07:03:23;16.00;99.90
78550;DHT22;68091;52.130;5.570;2023-10-09T07:06:07;16.00;99.90
78550;DHT22;68091;52.130;5.570;2023-10-09T07:08:55;16.10;99.90
78550;DHT22;68091;52.130;5.570;2023-10-09T07:11:40;16.10;99.90
78550;DHT22;68091;52.130;5.570;2023-10-09T07:14:16;16.10;99.90
78550;DHT22;68091;52.130;5.570;2023-10-09T07:17:07;16.20;99.90
78550;DHT22;68091;52.130;5.570;2023-10-09T07:19:47;16.20;99.90
78550;DHT22;68091;52.130;5.570;2023-10-09T07:22:16;16.30;99.90
78550;DHT22;68091;52.130;5.570;2023-10-09T07:25:03;16.30;99.90
78550;DHT22;68091;52.130;5.570;2023-10-09T07:27:43;16.30;99.90
78550;DHT22;68091;52.130;5.570;2023-10-09T07:30:15;16.40;99.90
78550;DHT22;68091;52.130;5.570;2023-10-09T07:32:59;16.30;99.90
78550;DHT22;68091;52.130;5.570;2023-10-09T07:35:48;16.40;99.90
78550;DHT22;68091;52.130;5.570;2023-10-09T07:38:20;16.40;99.90
78550;DHT22;68091;52.130;5.570;2023-10-09T07:40:46;16.40;99.90
78550;DHT22;68091;52.130;5.570;2023-10-09T07:43:24;16.50;99.90
78550;DHT22;68091;52.130;5.570;2023-10-09T07:46:19;16.50;99.90
78550;DHT22;68091;52.130;5.570;2023-10-09T07:49:03;16.60;99.90
78550;DHT22;68091;52.130;5.570;2023-10-09T07:51:35;16.70;99.90
78550;DHT22;68091;52.130;5.570;2023-10-09T07:54:01;16.90;99.90
78550;DHT22;68091;52.130;5.570;2023-10-09T07:56:33;16.80;99.90
78550;DHT22;68091;52.130;5.570;2023-10-09T07:59:04;16.80;99.90
78550;DHT22;68091;52.130;5.570;2023-10-09T08:01:45;16.90;99.90
78550;DHT22;68091;52.130;5.570;2023-10-09T08:04:40;16.90;99.90
78550;DHT22;68091;52.130;5.570;2023-10-09T08:07:15;17.00;99.90
78550;DHT22;68091;52.130;5.570;2023-10-09T08:10:05;17.10;99.90
78550;DHT22;68091;52.130;5.570;2023-10-09T08:12:43;17.20;99.90
78550;DHT22;68091;52.130;5.570;2023-10-09T08:15:24;17.30;99.90
78550;DHT22;68091;52.130;5.570;2023-10-09T08:18:09;17.40;99.90
78550;DHT22;68091;52.130;5.570;2023-10-09T08:20:43;17.50;99.90
78550;DHT22;68091;52.130;5.570;2023-10-09T08:23:27;17.60;99.90
78550;DHT22;68091;52.130;5.570;2023-10-09T08:26:14;17.60;99.90
78550;DHT22;68091;52.130;5.570;2023-10-09T08:28:40;17.60;99.90
78550;DHT22;68091;52.130;5.570;2023-10-09T08:31:14;17.60;99.90
78550;DHT22;68091;52.130;5.570;2023-10-09T08:34:06;17.60;99.90
78550;DHT22;68091;52.130;5.570;2023-10-09T08:36:35;17.80;99.90
78550;DHT22;68091;52.130;5.570;2023-10-09T08:39:03;17.80;99.90
78550;DHT22;68091;52.130;5.570;2023-10-09T08:41:51;17.90;99.90
78550;DHT22;68091;52.130;5.570;2023-10-09T08:44:17;17.90;99.90
78550;DHT22;68091;52.130;5.570;2023-10-09T08:46:46;18.00;99.90
78550;DHT22;68091;52.130;5.570;2023-10-09T08:49:12;18.10;99.90
78550;DHT22;68091;52.130;5.570;2023-10-09T08:51:39;18.10;99.90
78550;DHT22;68091;52.130;5.570;2023-10-09T08:54:07;18.20;99.90
78550;DHT22;68091;52.130;5.570;2023-10-09T08:56:36;18.20;99.90
78550;DHT22;68091;52.130;5.570;2023-10-09T08:59:05;18.30;99.90
78550;DHT22;68091;52.130;5.570;2023-10-09T09:01:30;18.30;99.90
78550;DHT22;68091;52.130;5.570;2023-10-09T09:03:57;18.40;99.90
78550;DHT22;68091;52.130;5.570;2023-10-09T09:06:25;18.40;99.90
78550;DHT22;68091;52.130;5.570;2023-10-09T09:08:51;18.50;99.90
78550;DHT22;68091;52.130;5.570;2023-10-09T09:11:24;18.40;99.90
78550;DHT22;68091;52.130;5.570;2023-10-09T09:16:20;18.60;99.90
78550;DHT22;68091;52.130;5.570;2023-10-09T09:18:53;18.60;99.90
78550;DHT22;68091;52.130;5.570;2023-10-09T09:21:30;18.70;99.90
78550;DHT22;68091;52.130;5.570;2023-10-09T09:24:02;18.80;99.90
78550;DHT22;68091;52.130;5.570;2023-10-09T09:26:35;19.00;99.90
78550;DHT22;68091;52.130;5.570;2023-10-09T09:29:06;19.20;99.90
78550;DHT22;68091;52.130;5.570;2023-10-09T09:31:33;19.20;99.90
78550;DHT22;68091;52.130;5.570;2023-10-09T09:34:07;19.20;99.90
78550;DHT22;68091;52.130;5.570;2023-10-09T09:39:40;19.20;99.90
78550;DHT22;68091;52.130;5.570;2023-10-09T09:42:08;19.20;99.90
78550;DHT22;68091;52.130;5.570;2023-10-09T09:44:39;19.30;99.90
78550;DHT22;68091;52.130;5.570;2023-10-09T09:47:14;19.30;99.90
78550;DHT22;68091;52.130;5.570;2023-10-09T09:49:50;19.40;99.90
78550;DHT22;68091;52.130;5.570;2023-10-09T09:52:16;19.50;99.90
78550;DHT22;68091;52.130;5.570;2023-10-09T09:54:43;19.60;99.90
78550;DHT22;68091;52.130;5.570;2023-10-09T09:57:09;19.60;99.90
78550;DHT22;68091;52.130;5.570;2023-10-09T09:59:39;19.50;99.90
78550;DHT22;68091;52.130;5.570;2023-10-09T10:02:18;19.40;99.90
78550;DHT22;68091;52.130;5.570;2023-10-09T10:04:45;19.60;99.90
78550;DHT22;68091;52.130;5.570;2023-10-09T10:07:15;19.80;99.90
78550;DHT22;68091;52.130;5.570;2023-10-09T10:09:42;19.90;99.90
78550;DHT22;68091;52.130;5.570;2023-10-09T10:12:14;19.90;99.90
78550;DHT22;68091;52.130;5.570;2023-10-09T10:14:52;19.90;99.90
78550;DHT22;68091;52.130;5.570;2023-10-09T10:17:19;19.90;99.90
78550;DHT22;68091;52.130;5.570;2023-10-09T10:22:25;19.90;99.90
78550;DHT22;68091;52.130;5.570;2023-10-09T10:24:58;19.90;99.90
78550;DHT22;68091;52.130;5.570;2023-10-09T10:27:28;20.10;99.90
78550;DHT22;68091;52.130;5.570;2023-10-09T10:35:20;20.10;99.90
78550;DHT22;68091;52.130;5.570;2023-10-09T10:38:06;20.10;99.90
78550;DHT22;68091;52.130;5.570;2023-10-09T10:40:46;20.20;99.90
78550;DHT22;68091;52.130;5.570;2023-10-09T10:43:18;20.30;99.90
78550;DHT22;68091;52.130;5.570;2023-10-09T10:46:06;20.40;99.90
78550;DHT22;68091;52.130;5.570;2023-10-09T10:48:56;20.50;99.90
78550;DHT22;68091;52.130;5.570;2023-10-09T10:51:27;20.50;99.90
78550;DHT22;68091;52.130;5.570;2023-10-09T10:54:03;20.60;99.90
78550;DHT22;68091;52.130;5.570;2023-10-09T10:56:47;20.50;99.90
78550;DHT22;68091;52.130;5.570;2023-10-09T10:59:14;20.50;99.90
78550;DHT22;68091;52.130;5.570;2023-10-09T11:01:40;20.50;99.90
78550;DHT22;68091;52.130;5.570;2023-10-09T11:04:26;20.50;99.90
78550;DHT22;68091;52.130;5.570;2023-10-09T11:06:58;20.60;99.90
78550;DHT22;68091;52.130;5.570;2023-10-09T11:09:57;20.80;99.90
78550;DHT22;68091;52.130;5.570;2023-10-09T11:15:15;20.60;99.90
78550;DHT22;68091;52.130;5.570;2023-10-09T11:18:00;20.80;99.90
78550;DHT22;68091;52.130;5.570;2023-10-09T11:20:39;20.80;99.90
78550;DHT22;68091;52.130;5.570;2023-10-09T11:23:05;20.90;99.90
78550;DHT22;68091;52.130;5.570;2023-10-09T11:25:45;21.10;99.90
78550;DHT22;68091;52.130;5.570;2023-10-09T11:28:21;21.20;99.90
78550;DHT22;68091;52.130;5.570;2023-10-09T11:31:16;21.20;99.90
78550;DHT22;68091;52.130;5.570;2023-10-09T11:33:47;21.20;99.90
78550;DHT22;68091;52.130;5.570;2023-10-09T11:36:14;21.20;99.90
78550;DHT22;68091;52.130;5.570;2023-10-09T11:38:40;21.20;99.90
78550;DHT22;68091;52.130;5.570;2023-10-09T11:41:11;21.10;99.90
78550;DHT22;68091;52.130;5.570;2023-10-09T11:43:47;21.20;99.90
78550;DHT22;68091;52.130;5.570;2023-10-09T11:46:20;21.20;99.90
78550;DHT22;68091;52.130;5.570;2023-10-09T11:49:24;21.30;99.90
78550;DHT22;68091;52.130;5.570;2023-10-09T11:52:09;21.60;99.90
78550;DHT22;68091;52.130;5.570;2023-10-09T11:54:35;21.60;99.90
78550;DHT22;68091;52.130;5.570;2023-10-09T11:57:07;21.60;99.90
78550;DHT22;68091;52.130;5.570;2023-10-09T11:59:32;21.60;99.90
78550;DHT22;68091;52.130;5.570;2023-10-09T12:02:07;21.60;99.90
78550;DHT22;68091;52.130;5.570;2023-10-09T12:04:42;21.50;99.90
78550;DHT22;68091;52.130;5.570;2023-10-09T12:07:08;21.30;99.90
78550;DHT22;68091;52.130;5.570;2023-10-09T12:09:38;21.10;99.90
78550;DHT22;68091;52.130;5.570;2023-10-09T12:12:05;20.80;99.90
78550;DHT22;68091;52.130;5.570;2023-10-09T12:14:31;20.70;99.90
78550;DHT22;68091;52.130;5.570;2023-10-09T12:17:00;20.60;99.90
78550;DHT22;68091;52.130;5.570;2023-10-09T12:19:34;20.70;99.90
78550;DHT22;68091;52.130;5.570;2023-10-09T12:22:00;20.70;99.90
78550;DHT22;68091;52.130;5.570;2023-10-09T12:24:26;20.60;99.90
78550;DHT22;68091;52.130;5.570;2023-10-09T12:26:54;20.60;99.90
78550;DHT22;68091;52.130;5.570;2023-10-09T12:29:23;20.60;99.90
78550;DHT22;68091;52.130;5.570;2023-10-09T12:31:52;20.60;99.90
78550;DHT22;68091;52.130;5.570;2023-10-09T12:34:26;20.40;99.90
78550;DHT22;68091;52.130;5.570;2023-10-09T12:36:56;20.30;99.90
78550;DHT22;68091;52.130;5.570;2023-10-09T12:39:26;20.30;99.90
78550;DHT22;68091;52.130;5.570;2023-10-09T12:41:56;20.30;99.90
78550;DHT22;68091;52.130;5.570;2023-10-09T12:44:24;20.30;99.90
78550;DHT22;68091;52.130;5.570;2023-10-09T12:46:52;20.30;99.90
78550;DHT22;68091;52.130;5.570;2023-10-09T12:49:21;20.30;99.90
78550;DHT22;68091;52.130;5.570;2023-10-09T12:51:51;20.30;99.90
78550;DHT22;68091;52.130;5.570;2023-10-09T12:54:17;20.20;99.90
78550;DHT22;68091;52.130;5.570;2023-10-09T12:56:55;20.20;99.90
78550;DHT22;68091;52.130;5.570;2023-10-09T12:59:20;20.30;99.90
78550;DHT22;68091;52.130;5.570;2023-10-09T13:01:47;20.30;99.90
78550;DHT22;68091;52.130;5.570;2023-10-09T13:04:18;20.20;99.90
78550;DHT22;68091;52.130;5.570;2023-10-09T13:06:44;20.20;99.90
78550;DHT22;68091;52.130;5.570;2023-10-09T13:09:10;20.10;99.90
78550;DHT22;68091;52.130;5.570;2023-10-09T13:11:36;20.10;99.90
78550;DHT22;68091;52.130;5.570;2023-10-09T13:14:02;20.10;99.90
78550;DHT22;68091;52.130;5.570;2023-10-09T13:16:39;20.10;99.90
78550;DHT22;68091;52.130;5.570;2023-10-09T13:19:06;20.20;99.90
78550;DHT22;68091;52.130;5.570;2023-10-09T13:21:35;20.10;99.90
78550;DHT22;68091;52.130;5.570;2023-10-09T13:24:03;20.20;99.90
78550;DHT22;68091;52.130;5.570;2023-10-09T13:26:28;20.10;99.90
78550;DHT22;68091;52.130;5.570;2023-10-09T13:28:55;20.10;99.90
78550;DHT22;68091;52.130;5.570;2023-10-09T13:31:21;20.10;99.90
78550;DHT22;68091;52.130;5.570;2023-10-09T13:33:51;20.00;99.90
78550;DHT22;68091;52.130;5.570;2023-10-09T13:36:22;20.00;99.90
78550;DHT22;68091;52.130;5.570;2023-10-09T13:39:04;19.90;99.90
78550;DHT22;68091;52.130;5.570;2023-10-09T13:41:50;19.90;99.90
78550;DHT22;68091;52.130;5.570;2023-10-09T13:44:32;19.90;99.90
78550;DHT22;68091;52.130;5.570;2023-10-09T13:47:02;19.90;99.90
78550;DHT22;68091;52.130;5.570;2023-10-09T13:49:30;19.80;99.90
78550;DHT22;68091;52.130;5.570;2023-10-09T13:51:56;19.80;99.90
78550;DHT22;68091;52.130;5.570;2023-10-09T13:54:22;19.90;99.90
78550;DHT22;68091;52.130;5.570;2023-10-09T13:57:05;19.90;99.90
78550;DHT22;68091;52.130;5.570;2023-10-09T13:59:31;19.90;99.90
78550;DHT22;68091;52.130;5.570;2023-10-09T14:01:57;19.90;99.90
78550;DHT22;68091;52.130;5.570;2023-10-09T14:04:25;19.80;99.90
78550;DHT22;68091;52.130;5.570;2023-10-09T14:06:51;19.90;99.90
78550;DHT22;68091;52.130;5.570;2023-10-09T14:09:25;19.90;99.90
78550;DHT22;68091;52.130;5.570;2023-10-09T14:11:59;20.10;99.90
78550;DHT22;68091;52.130;5.570;2023-10-09T14:14:38;20.20;99.90
78550;DHT22;68091;52.130;5.570;2023-10-09T14:17:06;20.30;99.90
78550;DHT22;68091;52.130;5.570;2023-10-09T14:19:47;20.20;99.90
78550;DHT22;68091;52.130;5.570;2023-10-09T14:22:14;20.30;99.90
78550;DHT22;68091;52.130;5.570;2023-10-09T14:24:44;20.30;99.90
78550;DHT22;68091;52.130;5.570;2023-10-09T14:27:11;20.30;99.90
78550;DHT22;68091;52.130;5.570;2023-10-09T14:29:46;20.30;99.90
78550;DHT22;68091;52.130;5.570;2023-10-09T14:32:15;20.30;99.90
78550;DHT22;68091;52.130;5.570;2023-10-09T14:34:44;20.20;99.90
78550;DHT22;68091;52.130;5.570;2023-10-09T14:37:18;20.20;99.90
78550;DHT22;68091;52.130;5.570;2023-10-09T14:39:47;20.10;99.90
78550;DHT22;68091;52.130;5.570;2023-10-09T14:42:16;20.10;99.90
78550;DHT22;68091;52.130;5.570;2023-10-09T14:44:42;20.00;99.90
78550;DHT22;68091;52.130;5.570;2023-10-09T14:47:10;19.90;99.90
78550;DHT22;68091;52.130;5.570;2023-10-09T14:49:36;19.80;99.90
78550;DHT22;68091;52.130;5.570;2023-10-09T14:52:09;19.70;99.90
78550;DHT22;68091;52.130;5.570;2023-10-09T14:54:38;19.80;99.90
78550;DHT22;68091;52.130;5.570;2023-10-09T14:57:04;19.90;99.90
78550;DHT22;68091;52.130;5.570;2023-10-09T14:59:32;20.00;99.90
78550;DHT22;68091;52.130;5.570;2023-10-09T15:01:58;20.10;99.90
78550;DHT22;68091;52.130;5.570;2023-10-09T15:04:24;20.10;99.90
78550;DHT22;68091;52.130;5.570;2023-10-09T15:06:51;20.20;99.90
78550;DHT22;68091;52.130;5.570;2023-10-09T15:09:17;20.30;99.90
78550;DHT22;68091;52.130;5.570;2023-10-09T15:11:49;20.30;99.90
78550;DHT22;68091;52.130;5.570;2023-10-09T15:14:14;20.30;99.90
78550;DHT22;68091;52.130;5.570;2023-10-09T15:16:40;20.30;99.90
78550;DHT22;68091;52.130;5.570;2023-10-09T15:19:08;20.30;99.90
78550;DHT22;68091;52.130;5.570;2023-10-09T15:21:41;20.20;99.90
78550;DHT22;68091;52.130;5.570;2023-10-09T15:24:19;20.10;99.90
78550;DHT22;68091;52.130;5.570;2023-10-09T15:26:46;19.90;99.90
78550;DHT22;68091;52.130;5.570;2023-10-09T15:29:19;19.80;99.90
78550;DHT22;68091;52.130;5.570;2023-10-09T15:32:00;19.70;99.90
78550;DHT22;68091;52.130;5.570;2023-10-09T15:34:47;19.60;99.90
78550;DHT22;68091;52.130;5.570;2023-10-09T15:37:13;19.70;99.90
78550;DHT22;68091;52.130;5.570;2023-10-09T15:39:51;19.50;99.90
78550;DHT22;68091;52.130;5.570;2023-10-09T15:42:17;19.60;99.90
78550;DHT22;68091;52.130;5.570;2023-10-09T15:44:42;19.60;99.90
78550;DHT22;68091;52.130;5.570;2023-10-09T15:47:13;19.50;99.90
78550;DHT22;68091;52.130;5.570;2023-10-09T15:49:41;19.50;99.90
78550;DHT22;68091;52.130;5.570;2023-10-09T15:52:09;19.50;99.90
78550;DHT22;68091;52.130;5.570;2023-10-09T15:54:42;19.50;99.90
78550;DHT22;68091;52.130;5.570;2023-10-09T15:57:08;19.40;99.90
78550;DHT22;68091;52.130;5.570;2023-10-09T15:59:35;19.30;99.90
78550;DHT22;68091;52.130;5.570;2023-10-09T16:02:06;19.30;99.90
78550;DHT22;68091;52.130;5.570;2023-10-09T16:04:36;19.30;99.90
78550;DHT22;68091;52.130;5.570;2023-10-09T16:07:05;19.20;99.90
78550;DHT22;68091;52.130;5.570;2023-10-09T16:09:33;19.20;99.90
78550;DHT22;68091;52.130;5.570;2023-10-09T16:12:07;19.20;99.90
78550;DHT22;68091;52.130;5.570;2023-10-09T16:14:33;19.20;99.90
78550;DHT22;68091;52.130;5.570;2023-10-09T16:17:00;19.20;99.90
78550;DHT22;68091;52.130;5.570;2023-10-09T16:19:27;19.10;99.90
78550;DHT22;68091;52.130;5.570;2023-10-09T16:21:58;19.10;99.90
78550;DHT22;68091;52.130;5.570;2023-10-09T16:24:29;19.10;99.90
78550;DHT22;68091;52.130;5.570;2023-10-09T16:26:55;19.10;99.90
78550;DHT22;68091;52.130;5.570;2023-10-09T16:29:26;19.00;99.90
78550;DHT22;68091;52.130;5.570;2023-10-09T16:31:53;19.00;99.90